sensor_id;sensor_type;location;lat;lon;timestamp;temperature;humidity
67890;DHT22;54685;52.082;5.426;2023-07-09T00:00:48;23.60;99.90
67890;DHT22;54685;52.082;5.426;2023-07-09T00:03:17;23.60;99.90
67890;DHT22;54685;52.082;5.426;2023-07-09T00:05:46;23.60;99.90
67890;DHT22;54685;52.082;5.426;2023-07-09T00:08:25;23.60;99.90
67890;DHT22;54685;52.082;5.426;2023-07-09T00:10:55;23.50;99.90
67890;DHT22;54685;52.082;5.426;2023-07-09T00:13:23;23.40;99.90
67890;DHT22;54685;52.082;5.426;2023-07-09T00:15:51;23.40;99.90
67890;DHT22;54685;52.082;5.426;2023-07-09T00:18:18;23.30;99.90
67890;DHT22;54685;52.082;5.426;2023-07-09T00:20:45;23.20;99.90
67890;DHT22;54685;52.082;5.426;2023-07-09T00:23:14;23.20;99.90
67890;DHT22;54685;52.082;5.426;2023-07-09T00:25:43;23.10;99.90
67890;DHT22;54685;52.082;5.426;2023-07-09T00:28:17;23.10;99.90
67890;DHT22;54685;52.082;5.426;2023-07-09T00:30:45;23.10;99.90
67890;DHT22;54685;52.082;5.426;2023-07-09T00:33:13;23.00;99.90
67890;DHT22;54685;52.082;5.426;2023-07-09T00:35:47;23.00;99.90
67890;DHT22;54685;52.082;5.426;2023-07-09T00:38:20;22.90;99.90
67890;DHT22;54685;52.082;5.426;2023-07-09T00:41:02;22.90;99.90
67890;DHT22;54685;52.082;5.426;2023-07-09T00:43:35;22.90;99.90
67890;DHT22;54685;52.082;5.426;2023-07-09T00:49:02;22.90;99.90
67890;DHT22;54685;52.082;5.426;2023-07-09T00:51:37;22.80;99.90
67890;DHT22;54685;52.082;5.426;2023-07-09T00:54:13;22.80;99.90
67890;DHT22;54685;52.082;5.426;2023-07-09T00:56:44;22.80;99.90
67890;DHT22;54685;52.082;5.426;2023-07-09T00:59:15;22.80;99.90
67890;DHT22;54685;52.082;5.426;2023-07-09T01:01:43;22.80;99.90
67890;DHT22;54685;52.082;5.426;2023-07-09T01:04:19;22.70;99.90
67890;DHT22;54685;52.082;5.426;2023-07-09T01:06:51;22.70;99.90
67890;DHT22;54685;52.082;5.426;2023-07-09T01:09:18;22.70;99.90
67890;DHT22;54685;52.082;5.426;2023-07-09T01:11:45;22.70;99.90
67890;DHT22;54685;52.082;5.426;2023-07-09T01:14:14;22.60;99.90
67890;DHT22;54685;52.082;5.426;2023-07-09T01:16:49;22.60;99.90
67890;DHT22;54685;52.082;5.426;2023-07-09T01:19:25;22.60;99.90
67890;DHT22;54685;52.082;5.426;2023-07-09T01:21:57;22.50;99.90
67890;DHT22;54685;52.082;5.426;2023-07-09T01:24:58;22.50;99.90
67890;DHT22;54685;52.082;5.426;2023-07-09T01:27:41;22.50;99.90
67890;DHT22;54685;52.082;5.426;2023-07-09T01:30:18;22.40;99.90
67890;DHT22;54685;52.082;5.426;2023-07-09T01:32:50;22.40;99.90
67890;DHT22;54685;52.082;5.426;2023-07-09T01:35:20;22.40;99.90
67890;DHT22;54685;52.082;5.426;2023-07-09T01:37:47;22.30;99.90
67890;DHT22;54685;52.082;5.426;2023-07-09T01:40:17;22.30;99.90
67890;DHT22;54685;52.082;5.426;2023-07-09T01:42:59;22.30;99.90
67890;DHT22;54685;52.082;5.426;2023-07-09T01:45:27;22.30;99.90
67890;DHT22;54685;52.082;5.426;2023-07-09T01:47:55;22.20;99.90
67890;DHT22;54685;52.082;5.426;2023-07-09T01:50:23;22.20;99.90
67890;DHT22;54685;52.082;5.426;2023-07-09T01:52:52;22.20;99.90
67890;DHT22;54685;52.082;5.426;2023-07-09T01:55:20;22.20;99.90
67890;DHT22;54685;52.082;5.426;2023-07-09T01:57:47;22.20;99.90
67890;DHT22;54685;52.082;5.426;2023-07-09T02:00:16;22.20;99.90
67890;DHT22;54685;52.082;5.426;2023-07-09T02:02:45;22.20;99.90
67890;DHT22;54685;52.082;5.426;2023-07-09T02:05:18;22.20;99.90
67890;DHT22;54685;52.082;5.426;2023-07-09T02:07:46;22.20;99.90
67890;DHT22;54685;52.082;5.426;2023-07-09T02:10:15;22.10;99.90
67890;DHT22;54685;52.082;5.426;2023-07-09T02:12:42;22.10;99.90
67890;DHT22;54685;52.082;5.426;2023-07-09T02:15:09;22.10;99.90
67890;DHT22;54685;52.082;5.426;2023-07-09T02:17:36;22.00;99.90
67890;DHT22;54685;52.082;5.426;2023-07-09T02:20:04;22.00;99.90
67890;DHT22;54685;52.082;5.426;2023-07-09T02:22:34;21.90;99.90
67890;DHT22;54685;52.082;5.426;2023-07-09T02:25:02;21.90;99.90
67890;DHT22;54685;52.082;5.426;2023-07-09T02:27:29;21.90;99.90
67890;DHT22;54685;52.082;5.426;2023-07-09T02:29:55;21.90;99.90
67890;DHT22;54685;52.082;5.426;2023-07-09T02:32:25;21.80;99.90
67890;DHT22;54685;52.082;5.426;2023-07-09T02:34:55;21.70;99.90
67890;DHT22;54685;52.082;5.426;2023-07-09T02:37:24;21.70;99.90
67890;DHT22;54685;52.082;5.426;2023-07-09T02:39:52;21.70;99.90
67890;DHT22;54685;52.082;5.426;2023-07-09T02:42:20;21.70;99.90
67890;DHT22;54685;52.082;5.426;2023-07-09T02:44:49;21.60;99.90
67890;DHT22;54685;52.082;5.426;2023-07-09T02:47:17;21.60;99.90
67890;DHT22;54685;52.082;5.426;2023-07-09T02:49:44;21.60;99.90
67890;DHT22;54685;52.082;5.426;2023-07-09T02:52:11;21.50;99.90
67890;DHT22;54685;52.082;5.426;2023-07-09T02:54:38;21.50;99.90
67890;DHT22;54685;52.082;5.426;2023-07-09T02:57:06;21.50;99.90
67890;DHT22;54685;52.082;5.426;2023-07-09T02:59:33;21.50;99.90
67890;DHT22;54685;52.082;5.426;2023-07-09T03:02:00;21.50;99.90
67890;DHT22;54685;52.082;5.426;2023-07-09T03:04:27;21.50;99.90
67890;DHT22;54685;52.082;5.426;2023-07-09T03:06:54;21.40;99.90
67890;DHT22;54685;52.082;5.426;2023-07-09T03:09:21;21.40;99.90
67890;DHT22;54685;52.082;5.426;2023-07-09T03:11:48;21.40;99.90
67890;DHT22;54685;52.082;5.426;2023-07-09T03:14:15;21.30;99.90
67890;DHT22;54685;52.082;5.426;2023-07-09T03:16:43;21.30;99.90
67890;DHT22;54685;52.082;5.426;2023-07-09T03:19:10;21.30;99.90
67890;DHT22;54685;52.082;5.426;2023-07-09T03:21:37;21.30;99.90
67890;DHT22;54685;52.082;5.426;2023-07-09T03:24:04;21.30;99.90
67890;DHT22;54685;52.082;5.426;2023-07-09T03:26:31;21.20;99.90
67890;DHT22;54685;52.082;5.426;2023-07-09T03:28:58;21.30;99.90
67890;DHT22;54685;52.082;5.426;2023-07-09T03:31:25;21.30;99.90
67890;DHT22;54685;52.082;5.426;2023-07-09T03:33:52;21.30;99.90
67890;DHT22;54685;52.082;5.426;2023-07-09T03:36:19;21.20;99.90
67890;DHT22;54685;52.082;5.426;2023-07-09T03:38:47;21.20;99.90
67890;DHT22;54685;52.082;5.426;2023-07-09T03:41:14;21.20;99.90
67890;DHT22;54685;52.082;5.426;2023-07-09T03:43:41;21.20;99.90
67890;DHT22;54685;52.082;5.426;2023-07-09T03:46:08;21.20;99.90
67890;DHT22;54685;52.082;5.426;2023-07-09T03:48:34;21.10;99.90
67890;DHT22;54685;52.082;5.426;2023-07-09T03:51:01;21.20;99.90
67890;DHT22;54685;52.082;5.426;2023-07-09T03:53:28;21.10;99.90
67890;DHT22;54685;52.082;5.426;2023-07-09T03:55:56;21.10;99.90
67890;DHT22;54685;52.082;5.426;2023-07-09T03:58:23;21.10;99.90
67890;DHT22;54685;52.082;5.426;2023-07-09T04:00:50;21.20;99.90
67890;DHT22;54685;52.082;5.426;2023-07-09T04:03:17;21.10;99.90
67890;DHT22;54685;52.082;5.426;2023-07-09T04:05:43;21.20;99.90
67890;DHT22;54685;52.082;5.426;2023-07-09T04:08:10;21.20;99.90
67890;DHT22;54685;52.082;5.426;2023-07-09T04:10:37;21.20;99.90
67890;DHT22;54685;52.082;5.426;2023-07-09T04:13:04;21.20;99.90
67890;DHT22;54685;52.082;5.426;2023-07-09T04:15:32;21.20;99.90
67890;DHT22;54685;52.082;5.426;2023-07-09T04:17:59;21.20;99.90
67890;DHT22;54685;52.082;5.426;2023-07-09T04:20:26;21.20;99.90
67890;DHT22;54685;52.082;5.426;2023-07-09T04:22:54;21.20;99.90
67890;DHT22;54685;52.082;5.426;2023-07-09T04:25:21;21.20;99.90
67890;DHT22;54685;52.082;5.426;2023-07-09T04:27:48;21.30;99.90
67890;DHT22;54685;52.082;5.426;2023-07-09T04:30:17;21.30;99.90
67890;DHT22;54685;52.082;5.426;2023-07-09T04:32:44;21.30;99.90
67890;DHT22;54685;52.082;5.426;2023-07-09T04:35:12;21.40;99.90
67890;DHT22;54685;52.082;5.426;2023-07-09T04:37:40;21.40;99.90
67890;DHT22;54685;52.082;5.426;2023-07-09T04:40:08;21.40;99.90
67890;DHT22;54685;52.082;5.426;2023-07-09T04:42:37;21.40;99.90
67890;DHT22;54685;52.082;5.426;2023-07-09T04:45:10;21.50;99.90
67890;DHT22;54685;52.082;5.426;2023-07-09T04:47:38;21.50;99.90
67890;DHT22;54685;52.082;5.426;2023-07-09T04:50:07;21.50;99.90
67890;DHT22;54685;52.082;5.426;2023-07-09T04:52:34;21.50;99.90
67890;DHT22;54685;52.082;5.426;2023-07-09T04:55:01;21.50;99.90
67890;DHT22;54685;52.082;5.426;2023-07-09T04:57:28;21.50;99.90
67890;DHT22;54685;52.082;5.426;2023-07-09T04:59:55;21.50;99.90
67890;DHT22;54685;52.082;5.426;2023-07-09T05:02:22;21.50;99.90
67890;DHT22;54685;52.082;5.426;2023-07-09T05:04:50;21.60;99.90
67890;DHT22;54685;52.082;5.426;2023-07-09T05:07:16;21.60;99.90
67890;DHT22;54685;52.082;5.426;2023-07-09T05:09:43;21.70;99.90
67890;DHT22;54685;52.082;5.426;2023-07-09T05:12:10;21.70;99.90
67890;DHT22;54685;52.082;5.426;2023-07-09T05:14:37;21.80;99.90
67890;DHT22;54685;52.082;5.426;2023-07-09T05:17:05;21.80;99.90
67890;DHT22;54685;52.082;5.426;2023-07-09T05:19:32;21.90;99.90
67890;DHT22;54685;52.082;5.426;2023-07-09T05:21:59;21.90;99.90
67890;DHT22;54685;52.082;5.426;2023-07-09T05:24:26;21.90;99.90
67890;DHT22;54685;52.082;5.426;2023-07-09T05:26:55;22.00;99.90
67890;DHT22;54685;52.082;5.426;2023-07-09T05:29:23;22.00;99.90
67890;DHT22;54685;52.082;5.426;2023-07-09T05:31:50;22.10;99.90
67890;DHT22;54685;52.082;5.426;2023-07-09T05:34:17;22.20;99.90
67890;DHT22;54685;52.082;5.426;2023-07-09T05:36:43;22.20;99.90
67890;DHT22;54685;52.082;5.426;2023-07-09T05:39:11;22.40;99.90
67890;DHT22;54685;52.082;5.426;2023-07-09T05:41:38;22.40;99.90
67890;DHT22;54685;52.082;5.426;2023-07-09T05:44:05;22.50;99.90
67890;DHT22;54685;52.082;5.426;2023-07-09T05:46:36;22.60;99.90
67890;DHT22;54685;52.082;5.426;2023-07-09T05:49:05;22.60;99.90
67890;DHT22;54685;52.082;5.426;2023-07-09T05:51:32;22.70;99.90
67890;DHT22;54685;52.082;5.426;2023-07-09T05:53:59;22.80;99.90
67890;DHT22;54685;52.082;5.426;2023-07-09T05:56:25;22.80;99.90
67890;DHT22;54685;52.082;5.426;2023-07-09T05:58:53;22.90;99.90
67890;DHT22;54685;52.082;5.426;2023-07-09T06:01:20;22.90;99.90
67890;DHT22;54685;52.082;5.426;2023-07-09T06:03:47;23.00;99.90
67890;DHT22;54685;52.082;5.426;2023-07-09T06:06:14;23.10;99.90
67890;DHT22;54685;52.082;5.426;2023-07-09T06:08:41;23.10;99.90
67890;DHT22;54685;52.082;5.426;2023-07-09T06:11:08;23.20;99.90
67890;DHT22;54685;52.082;5.426;2023-07-09T06:13:35;23.20;99.90
67890;DHT22;54685;52.082;5.426;2023-07-09T06:16:02;23.30;99.90
67890;DHT22;54685;52.082;5.426;2023-07-09T06:18:30;23.30;99.90
67890;DHT22;54685;52.082;5.426;2023-07-09T06:20:59;23.40;99.90
67890;DHT22;54685;52.082;5.426;2023-07-09T06:23:27;23.50;99.90
67890;DHT22;54685;52.082;5.426;2023-07-09T06:25:54;23.50;99.90
67890;DHT22;54685;52.082;5.426;2023-07-09T06:28:23;23.60;99.90
67890;DHT22;54685;52.082;5.426;2023-07-09T06:30:50;23.60;99.90
67890;DHT22;54685;52.082;5.426;2023-07-09T06:33:18;23.70;99.90
67890;DHT22;54685;52.082;5.426;2023-07-09T06:35:50;23.70;99.90
67890;DHT22;54685;52.082;5.426;2023-07-09T06:38:18;23.80;99.90
67890;DHT22;54685;52.082;5.426;2023-07-09T06:40:46;23.80;99.90
67890;DHT22;54685;52.082;5.426;2023-07-09T06:43:13;23.90;99.90
67890;DHT22;54685;52.082;5.426;2023-07-09T06:45:53;24.00;99.90
67890;DHT22;54685;52.082;5.426;2023-07-09T06:48:21;24.10;99.90
67890;DHT22;54685;52.082;5.426;2023-07-09T06:50:48;24.10;99.90
67890;DHT22;54685;52.082;5.426;2023-07-09T06:53:16;24.20;99.90
67890;DHT22;54685;52.082;5.426;2023-07-09T06:55:43;24.30;99.90
67890;DHT22;54685;52.082;5.426;2023-07-09T06:58:10;24.40;99.90
67890;DHT22;54685;52.082;5.426;2023-07-09T07:00:37;24.50;99.90
67890;DHT22;54685;52.082;5.426;2023-07-09T07:03:05;24.60;99.90
67890;DHT22;54685;52.082;5.426;2023-07-09T07:05:32;24.60;99.90
67890;DHT22;54685;52.082;5.426;2023-07-09T07:08:00;24.70;99.90
67890;DHT22;54685;52.082;5.426;2023-07-09T07:10:27;24.80;99.90
67890;DHT22;54685;52.082;5.426;2023-07-09T07:12:54;24.90;99.90
67890;DHT22;54685;52.082;5.426;2023-07-09T07:15:21;25.00;99.90
67890;DHT22;54685;52.082;5.426;2023-07-09T07:17:49;25.10;99.90
67890;DHT22;54685;52.082;5.426;2023-07-09T07:20:18;25.10;99.90
67890;DHT22;54685;52.082;5.426;2023-07-09T07:22:45;25.30;99.90
67890;DHT22;54685;52.082;5.426;2023-07-09T07:25:12;25.30;99.90
67890;DHT22;54685;52.082;5.426;2023-07-09T07:27:42;25.50;99.90
67890;DHT22;54685;52.082;5.426;2023-07-09T07:30:09;25.50;99.90
67890;DHT22;54685;52.082;5.426;2023-07-09T07:32:38;25.70;99.90
67890;DHT22;54685;52.082;5.426;2023-07-09T07:35:06;25.70;99.90
67890;DHT22;54685;52.082;5.426;2023-07-09T07:37:33;25.80;99.90
67890;DHT22;54685;52.082;5.426;2023-07-09T07:39:59;25.90;99.90
67890;DHT22;54685;52.082;5.426;2023-07-09T07:42:27;25.90;99.90
67890;DHT22;54685;52.082;5.426;2023-07-09T07:44:54;26.00;99.90
67890;DHT22;54685;52.082;5.426;2023-07-09T07:47:20;26.10;99.90
67890;DHT22;54685;52.082;5.426;2023-07-09T07:49:47;26.10;99.90
67890;DHT22;54685;52.082;5.426;2023-07-09T07:52:14;26.20;99.90
67890;DHT22;54685;52.082;5.426;2023-07-09T07:54:42;26.30;99.90
67890;DHT22;54685;52.082;5.426;2023-07-09T07:57:10;26.40;99.90
67890;DHT22;54685;52.082;5.426;2023-07-09T07:59:37;26.50;99.90
67890;DHT22;54685;52.082;5.426;2023-07-09T08:02:06;26.50;99.90
67890;DHT22;54685;52.082;5.426;2023-07-09T08:04:36;26.60;99.90
67890;DHT22;54685;52.082;5.426;2023-07-09T08:07:03;26.70;99.90
67890;DHT22;54685;52.082;5.426;2023-07-09T08:09:30;26.80;99.90
67890;DHT22;54685;52.082;5.426;2023-07-09T08:11:57;26.80;99.90
67890;DHT22;54685;52.082;5.426;2023-07-09T08:14:23;26.90;99.90
67890;DHT22;54685;52.082;5.426;2023-07-09T08:16:53;27.00;99.90
67890;DHT22;54685;52.082;5.426;2023-07-09T08:19:19;27.10;99.90
67890;DHT22;54685;52.082;5.426;2023-07-09T08:21:46;27.20;99.90
67890;DHT22;54685;52.082;5.426;2023-07-09T08:24:13;27.30;99.90
67890;DHT22;54685;52.082;5.426;2023-07-09T08:26:41;27.30;99.90
67890;DHT22;54685;52.082;5.426;2023-07-09T08:29:08;27.50;98.60
67890;DHT22;54685;52.082;5.426;2023-07-09T08:31:35;27.50;97.90
67890;DHT22;54685;52.082;5.426;2023-07-09T08:34:02;27.60;97.80
67890;DHT22;54685;52.082;5.426;2023-07-09T08:36:29;27.70;96.90
67890;DHT22;54685;52.082;5.426;2023-07-09T08:38:57;27.80;96.90
67890;DHT22;54685;52.082;5.426;2023-07-09T08:41:41;28.00;95.80
67890;DHT22;54685;52.082;5.426;2023-07-09T08:44:33;28.10;95.50
67890;DHT22;54685;52.082;5.426;2023-07-09T08:50:22;28.40;94.50
67890;DHT22;54685;52.082;5.426;2023-07-09T08:52:51;28.60;94.30
67890;DHT22;54685;52.082;5.426;2023-07-09T08:55:26;28.70;94.10
67890;DHT22;54685;52.082;5.426;2023-07-09T08:58:01;28.90;92.80
67890;DHT22;54685;52.082;5.426;2023-07-09T09:00:30;29.00;90.70
67890;DHT22;54685;52.082;5.426;2023-07-09T09:05:49;29.30;90.20
67890;DHT22;54685;52.082;5.426;2023-07-09T09:08:40;29.40;86.90
67890;DHT22;54685;52.082;5.426;2023-07-09T09:11:21;29.50;84.30
67890;DHT22;54685;52.082;5.426;2023-07-09T09:13:55;29.70;82.70
67890;DHT22;54685;52.082;5.426;2023-07-09T09:16:37;29.80;82.40
67890;DHT22;54685;52.082;5.426;2023-07-09T09:19:21;30.00;83.10
67890;DHT22;54685;52.082;5.426;2023-07-09T09:21:56;30.20;76.00
67890;DHT22;54685;52.082;5.426;2023-07-09T09:24:35;30.30;77.90
67890;DHT22;54685;52.082;5.426;2023-07-09T09:27:03;30.40;76.80
67890;DHT22;54685;52.082;5.426;2023-07-09T09:29:31;30.50;77.90
67890;DHT22;54685;52.082;5.426;2023-07-09T09:32:00;30.70;79.50
67890;DHT22;54685;52.082;5.426;2023-07-09T09:34:35;30.90;77.40
67890;DHT22;54685;52.082;5.426;2023-07-09T09:37:10;31.00;76.90
67890;DHT22;54685;52.082;5.426;2023-07-09T09:39:38;31.20;75.90
67890;DHT22;54685;52.082;5.426;2023-07-09T09:42:10;31.30;75.80
67890;DHT22;54685;52.082;5.426;2023-07-09T09:44:44;31.30;71.70
67890;DHT22;54685;52.082;5.426;2023-07-09T09:47:11;31.40;74.80
67890;DHT22;54685;52.082;5.426;2023-07-09T09:49:42;31.50;72.10
67890;DHT22;54685;52.082;5.426;2023-07-09T09:52:15;31.50;68.80
67890;DHT22;54685;52.082;5.426;2023-07-09T09:54:50;31.70;69.30
67890;DHT22;54685;52.082;5.426;2023-07-09T09:57:21;31.70;66.40
67890;DHT22;54685;52.082;5.426;2023-07-09T09:59:49;31.90;66.10
67890;DHT22;54685;52.082;5.426;2023-07-09T10:02:21;31.90;65.00
67890;DHT22;54685;52.082;5.426;2023-07-09T10:04:50;32.00;65.80
67890;DHT22;54685;52.082;5.426;2023-07-09T10:07:34;32.10;63.10
67890;DHT22;54685;52.082;5.426;2023-07-09T10:10:08;32.10;63.10
67890;DHT22;54685;52.082;5.426;2023-07-09T10:12:51;32.20;62.20
67890;DHT22;54685;52.082;5.426;2023-07-09T10:15:48;32.40;65.90
67890;DHT22;54685;52.082;5.426;2023-07-09T10:23:59;32.80;59.20
67890;DHT22;54685;52.082;5.426;2023-07-09T10:32:56;33.40;57.20
67890;DHT22;54685;52.082;5.426;2023-07-09T10:40:58;34.00;56.30
67890;DHT22;54685;52.082;5.426;2023-07-09T10:46:29;34.20;53.70
67890;DHT22;54685;52.082;5.426;2023-07-09T10:49:00;34.10;51.60
67890;DHT22;54685;52.082;5.426;2023-07-09T10:51:37;33.90;53.30
67890;DHT22;54685;52.082;5.426;2023-07-09T10:56:39;33.60;54.30
67890;DHT22;54685;52.082;5.426;2023-07-09T10:59:28;33.80;55.30
67890;DHT22;54685;52.082;5.426;2023-07-09T11:02:24;33.90;54.20
67890;DHT22;54685;52.082;5.426;2023-07-09T11:04:55;33.80;53.90
67890;DHT22;54685;52.082;5.426;2023-07-09T11:07:48;33.70;55.30
67890;DHT22;54685;52.082;5.426;2023-07-09T11:10:34;33.60;55.00
67890;DHT22;54685;52.082;5.426;2023-07-09T11:13:17;33.20;54.40
67890;DHT22;54685;52.082;5.426;2023-07-09T11:15:49;32.90;63.20
67890;DHT22;54685;52.082;5.426;2023-07-09T11:18:23;32.70;60.90
67890;DHT22;54685;52.082;5.426;2023-07-09T11:21:03;32.50;61.10
67890;DHT22;54685;52.082;5.426;2023-07-09T11:24:00;32.30;61.90
67890;DHT22;54685;52.082;5.426;2023-07-09T11:29:14;32.20;63.10
67890;DHT22;54685;52.082;5.426;2023-07-09T11:31:44;32.40;54.20
67890;DHT22;54685;52.082;5.426;2023-07-09T11:42:34;32.40;55.50
67890;DHT22;54685;52.082;5.426;2023-07-09T11:45:14;32.40;54.00
67890;DHT22;54685;52.082;5.426;2023-07-09T11:47:47;32.50;55.40
67890;DHT22;54685;52.082;5.426;2023-07-09T11:50:26;32.50;55.70
67890;DHT22;54685;52.082;5.426;2023-07-09T11:53:22;32.40;54.80
67890;DHT22;54685;52.082;5.426;2023-07-09T11:55:52;32.40;53.00
67890;DHT22;54685;52.082;5.426;2023-07-09T11:58:19;32.30;53.50
67890;DHT22;54685;52.082;5.426;2023-07-09T12:00:50;32.20;54.00
67890;DHT22;54685;52.082;5.426;2023-07-09T12:03:25;32.20;53.80
67890;DHT22;54685;52.082;5.426;2023-07-09T12:05:54;32.20;56.00
67890;DHT22;54685;52.082;5.426;2023-07-09T12:08:36;32.10;57.60
67890;DHT22;54685;52.082;5.426;2023-07-09T12:11:04;32.00;62.20
67890;DHT22;54685;52.082;5.426;2023-07-09T12:13:39;31.90;64.30
67890;DHT22;54685;52.082;5.426;2023-07-09T12:16:40;31.80;65.30
67890;DHT22;54685;52.082;5.426;2023-07-09T12:19:09;31.70;66.10
67890;DHT22;54685;52.082;5.426;2023-07-09T12:21:39;31.60;66.40
67890;DHT22;54685;52.082;5.426;2023-07-09T12:24:35;31.60;66.70
67890;DHT22;54685;52.082;5.426;2023-07-09T12:27:16;31.50;65.50
67890;DHT22;54685;52.082;5.426;2023-07-09T12:29:44;31.40;65.90
67890;DHT22;54685;52.082;5.426;2023-07-09T12:32:13;31.30;65.70
67890;DHT22;54685;52.082;5.426;2023-07-09T12:34:41;31.30;65.30
67890;DHT22;54685;52.082;5.426;2023-07-09T12:37:17;31.30;65.90
67890;DHT22;54685;52.082;5.426;2023-07-09T12:39:45;31.30;62.90
67890;DHT22;54685;52.082;5.426;2023-07-09T12:42:16;31.30;63.90
67890;DHT22;54685;52.082;5.426;2023-07-09T12:44:44;31.30;63.00
67890;DHT22;54685;52.082;5.426;2023-07-09T12:47:14;31.30;63.20
67890;DHT22;54685;52.082;5.426;2023-07-09T12:49:43;31.20;62.50
67890;DHT22;54685;52.082;5.426;2023-07-09T12:52:18;31.10;62.30
67890;DHT22;54685;52.082;5.426;2023-07-09T12:57:23;30.80;61.20
67890;DHT22;54685;52.082;5.426;2023-07-09T12:59:51;30.60;62.40
67890;DHT22;54685;52.082;5.426;2023-07-09T13:02:26;30.70;63.30
67890;DHT22;54685;52.082;5.426;2023-07-09T13:05:06;30.80;64.20
67890;DHT22;54685;52.082;5.426;2023-07-09T13:07:38;30.90;65.70
67890;DHT22;54685;52.082;5.426;2023-07-09T13:10:23;31.00;65.70
67890;DHT22;54685;52.082;5.426;2023-07-09T13:12:55;31.10;64.20
67890;DHT22;54685;52.082;5.426;2023-07-09T13:15:26;31.10;64.10
67890;DHT22;54685;52.082;5.426;2023-07-09T13:18:01;31.20;63.70
67890;DHT22;54685;52.082;5.426;2023-07-09T13:20:30;31.20;56.80
67890;DHT22;54685;52.082;5.426;2023-07-09T13:22:58;31.00;54.40
67890;DHT22;54685;52.082;5.426;2023-07-09T13:25:25;30.90;55.60
67890;DHT22;54685;52.082;5.426;2023-07-09T13:28:21;30.60;56.00
67890;DHT22;54685;52.082;5.426;2023-07-09T13:30:51;30.50;59.20
67890;DHT22;54685;52.082;5.426;2023-07-09T13:33:18;30.40;57.90
67890;DHT22;54685;52.082;5.426;2023-07-09T13:35:46;30.30;59.30
67890;DHT22;54685;52.082;5.426;2023-07-09T13:38:18;30.40;60.70
67890;DHT22;54685;52.082;5.426;2023-07-09T13:40:48;30.40;59.60
67890;DHT22;54685;52.082;5.426;2023-07-09T13:43:19;30.40;59.80
67890;DHT22;54685;52.082;5.426;2023-07-09T13:45:47;30.40;59.30
67890;DHT22;54685;52.082;5.426;2023-07-09T13:48:18;30.40;58.80
67890;DHT22;54685;52.082;5.426;2023-07-09T13:50:48;30.20;58.60
67890;DHT22;54685;52.082;5.426;2023-07-09T13:53:22;30.10;58.70
67890;DHT22;54685;52.082;5.426;2023-07-09T13:55:50;29.90;59.00
67890;DHT22;54685;52.082;5.426;2023-07-09T13:58:19;29.80;58.90
67890;DHT22;54685;52.082;5.426;2023-07-09T14:00:49;29.70;59.10
67890;DHT22;54685;52.082;5.426;2023-07-09T14:05:47;29.40;60.20
67890;DHT22;54685;52.082;5.426;2023-07-09T14:08:14;29.30;60.30
67890;DHT22;54685;52.082;5.426;2023-07-09T14:10:42;29.20;61.00
67890;DHT22;54685;52.082;5.426;2023-07-09T14:13:13;29.10;61.40
67890;DHT22;54685;52.082;5.426;2023-07-09T14:15:41;29.00;62.30
67890;DHT22;54685;52.082;5.426;2023-07-09T14:18:14;28.90;62.70
67890;DHT22;54685;52.082;5.426;2023-07-09T14:20:42;28.80;63.60
67890;DHT22;54685;52.082;5.426;2023-07-09T14:23:13;28.60;64.50
67890;DHT22;54685;52.082;5.426;2023-07-09T14:25:42;28.40;65.50
67890;DHT22;54685;52.082;5.426;2023-07-09T14:28:18;28.20;66.80
67890;DHT22;54685;52.082;5.426;2023-07-09T14:30:48;28.10;67.90
67890;DHT22;54685;52.082;5.426;2023-07-09T14:33:18;28.00;68.30
67890;DHT22;54685;52.082;5.426;2023-07-09T14:35:46;27.80;66.70
67890;DHT22;54685;52.082;5.426;2023-07-09T14:38:20;27.70;66.00
67890;DHT22;54685;52.082;5.426;2023-07-09T14:40:50;27.50;65.40
67890;DHT22;54685;52.082;5.426;2023-07-09T14:43:17;27.30;65.60
67890;DHT22;54685;52.082;5.426;2023-07-09T14:45:44;27.10;67.40
67890;DHT22;54685;52.082;5.426;2023-07-09T14:48:13;26.90;68.50
67890;DHT22;54685;52.082;5.426;2023-07-09T14:50:40;27.20;73.70
67890;DHT22;54685;52.082;5.426;2023-07-09T14:53:14;26.50;76.30
67890;DHT22;54685;52.082;5.426;2023-07-09T14:55:42;25.70;90.30
67890;DHT22;54685;52.082;5.426;2023-07-09T14:58:18;25.10;94.20
67890;DHT22;54685;52.082;5.426;2023-07-09T15:00:46;24.70;99.90
67890;DHT22;54685;52.082;5.426;2023-07-09T15:03:25;24.30;99.90
67890;DHT22;54685;52.082;5.426;2023-07-09T15:05:53;24.10;99.90
67890;DHT22;54685;52.082;5.426;2023-07-09T15:08:24;23.90;99.90
67890;DHT22;54685;52.082;5.426;2023-07-09T15:10:53;23.80;99.90
67890;DHT22;54685;52.082;5.426;2023-07-09T15:15:53;23.70;99.90
67890;DHT22;54685;52.082;5.426;2023-07-09T15:18:20;23.80;99.90
67890;DHT22;54685;52.082;5.426;2023-07-09T15:20:52;23.60;99.90
67890;DHT22;54685;52.082;5.426;2023-07-09T15:23:21;23.40;99.90
67890;DHT22;54685;52.082;5.426;2023-07-09T15:25:50;23.30;99.90
67890;DHT22;54685;52.082;5.426;2023-07-09T15:28:17;23.30;99.90
67890;DHT22;54685;52.082;5.426;2023-07-09T15:30:45;23.20;99.90
67890;DHT22;54685;52.082;5.426;2023-07-09T15:33:18;23.10;99.90
67890;DHT22;54685;52.082;5.426;2023-07-09T15:35:47;23.10;99.90
67890;DHT22;54685;52.082;5.426;2023-07-09T15:38:24;23.10;99.90
67890;DHT22;54685;52.082;5.426;2023-07-09T15:40:52;23.10;99.90
67890;DHT22;54685;52.082;5.426;2023-07-09T15:43:19;23.10;99.90
67890;DHT22;54685;52.082;5.426;2023-07-09T15:45:48;23.10;99.90
67890;DHT22;54685;52.082;5.426;2023-07-09T15:48:46;23.10;99.90
67890;DHT22;54685;52.082;5.426;2023-07-09T15:51:13;23.10;99.90
67890;DHT22;54685;52.082;5.426;2023-07-09T15:53:40;23.00;99.90
67890;DHT22;54685;52.082;5.426;2023-07-09T15:56:25;23.00;99.90
67890;DHT22;54685;52.082;5.426;2023-07-09T15:58:54;23.00;99.90
67890;DHT22;54685;52.082;5.426;2023-07-09T16:01:21;23.00;99.90
67890;DHT22;54685;52.082;5.426;2023-07-09T16:03:57;23.00;99.90
67890;DHT22;54685;52.082;5.426;2023-07-09T16:06:25;23.00;99.90
67890;DHT22;54685;52.082;5.426;2023-07-09T16:08:52;23.00;99.90
67890;DHT22;54685;52.082;5.426;2023-07-09T16:11:21;23.00;99.90
67890;DHT22;54685;52.082;5.426;2023-07-09T16:13:49;23.00;99.90
67890;DHT22;54685;52.082;5.426;2023-07-09T16:16:18;23.10;99.90
67890;DHT22;54685;52.082;5.426;2023-07-09T16:18:48;23.00;99.90
67890;DHT22;54685;52.082;5.426;2023-07-09T16:21:28;23.00;99.90
67890;DHT22;54685;52.082;5.426;2023-07-09T16:23:57;23.00;99.90
67890;DHT22;54685;52.082;5.426;2023-07-09T16:26:26;23.00;99.90
67890;DHT22;54685;52.082;5.426;2023-07-09T16:28:53;23.00;99.90
67890;DHT22;54685;52.082;5.426;2023-07-09T16:31:20;23.00;99.90
67890;DHT22;54685;52.082;5.426;2023-07-09T16:33:47;23.10;99.90
67890;DHT22;54685;52.082;5.426;2023-07-09T16:36:16;23.10;99.90
67890;DHT22;54685;52.082;5.426;2023-07-09T16:38:45;23.20;99.90
67890;DHT22;54685;52.082;5.426;2023-07-09T16:41:12;23.30;99.90